Time;durP1;ratioP1;P1;durP2;ratioP2;P2;SDS_P1;SDS_P2;PMS_P1;PMS_P2;Temp;Humidity;BMP_temperature;BMP_pressure;BME280_temperature;BME280_humidity;BME280_pressure;Samples;Min_cycle;Max_cycle;Signal;HPM_P1;HPM_P2
2021/06/07 00:00:25;;;;;;;19.13;14.73;;;19.10;99.90;;;;;;5088624;28;20446;-80
2021/06/07 00:02:53;;;;;;;19.50;14.00;;;19.10;99.90;;;;;;5082043;28;21034;-81
2021/06/07 00:05:22;;;;;;;18.70;14.47;;;19.10;1.00;;;;;;5089471;28;20524;-78
2021/06/07 00:07:50;;;;;;;22.70;16.10;;;19.10;99.90;;;;;;5089402;28;20808;-77
2021/06/07 00:10:20;;;;;;;24.53;16.17;;;19.10;99.90;;;;;;5088660;28;20464;-78
2021/06/07 00:12:47;;;;;;;21.47;15.33;;;19.00;99.90;;;;;;5088493;28;20458;-78
2021/06/07 00:15:18;;;;;;;21.93;15.53;;;19.10;99.90;;;;;;5089922;28;20477;-77
2021/06/07 00:17:46;;;;;;;21.43;15.60;;;19.00;99.90;;;;;;5089245;28;21121;-77
2021/06/07 00:20:17;;;;;;;25.47;16.30;;;19.00;99.90;;;;;;5085181;28;20457;-75
2021/06/07 00:22:45;;;;;;;20.87;15.83;;;19.00;1.00;;;;;;5089338;28;20502;-79
2021/06/07 00:25:14;;;;;;;23.20;16.00;;;19.00;1.00;;;;;;5084733;28;20488;-78
2021/06/07 00:27:43;;;;;;;22.03;14.87;;;19.00;1.00;;;;;;5090512;28;20452;-78
2021/06/07 00:30:12;;;;;;;23.40;16.03;;;19.00;1.00;;;;;;5085457;28;20845;-78
2021/06/07 00:32:40;;;;;;;21.60;15.40;;;19.00;1.00;;;;;;5089166;28;20449;-76
2021/06/07 00:35:08;;;;;;;19.90;14.77;;;19.00;1.00;;;;;;5086024;28;20480;-78
2021/06/07 00:37:36;;;;;;;25.80;17.57;;;19.00;1.00;;;;;;5083551;28;21342;-77
2021/06/07 00:40:06;;;;;;;23.40;15.70;;;19.00;1.00;;;;;;5086949;28;20470;-77
2021/06/07 00:42:33;;;;;;;23.07;16.10;;;19.00;1.00;;;;;;5088530;28;20473;-76
2021/06/07 00:45:04;;;;;;;21.70;15.67;;;19.00;1.00;;;;;;5087235;28;20477;-77
2021/06/07 00:47:33;;;;;;;27.70;17.23;;;19.00;1.00;;;;;;5089622;28;20452;-78
2021/06/07 00:50:00;;;;;;;21.70;15.03;;;19.00;1.00;;;;;;5087136;28;20452;-76
2021/06/07 00:52:28;;;;;;;21.20;14.90;;;19.00;1.00;;;;;;5088830;28;20461;-79
2021/06/07 00:54:55;;;;;;;22.97;15.63;;;19.00;1.00;;;;;;5086332;28;20472;-76
2021/06/07 00:57:23;;;;;;;23.80;16.27;;;18.90;1.00;;;;;;5089256;28;20570;-76
2021/06/07 00:59:51;;;;;;;21.33;15.70;;;19.00;99.90;;;;;;5087308;28;20448;-76
2021/06/07 01:02:20;;;;;;;21.93;16.23;;;19.00;1.00;;;;;;5086889;28;20448;-80
2021/06/07 01:04:48;;;;;;;21.17;15.70;;;18.90;1.00;;;;;;5086225;28;20493;-77
2021/06/07 01:07:15;;;;;;;24.47;14.60;;;18.90;1.00;;;;;;5089728;28;20501;-76
2021/06/07 01:09:43;;;;;;;25.93;17.00;;;18.90;1.00;;;;;;5083243;28;20473;-78
2021/06/07 01:12:12;;;;;;;22.30;15.10;;;18.90;1.00;;;;;;5088120;28;20507;-76
2021/06/07 01:14:40;;;;;;;21.67;15.23;;;18.90;1.00;;;;;;5088091;28;20532;-76
2021/06/07 01:17:08;;;;;;;18.53;13.97;;;19.00;99.90;;;;;;5086974;28;20503;-77
2021/06/07 01:19:37;;;;;;;21.93;15.47;;;19.00;1.00;;;;;;5086581;28;20449;-76
2021/06/07 01:22:06;;;;;;;21.03;15.57;;;19.00;99.90;;;;;;5087845;28;20506;-76
2021/06/07 01:24:34;;;;;;;21.70;15.73;;;19.00;99.90;;;;;;5084377;28;20502;-77
2021/06/07 01:27:02;;;;;;;25.40;15.73;;;18.90;1.00;;;;;;5088347;28;20458;-78
2021/06/07 01:29:30;;;;;;;20.57;14.80;;;18.90;1.00;;;;;;5086648;28;20459;-78
2021/06/07 01:31:58;;;;;;;22.50;16.50;;;18.90;1.00;;;;;;5086814;28;20553;-78
2021/06/07 01:34:26;;;;;;;27.50;16.37;;;18.90;99.90;;;;;;5086696;28;20510;-77
2021/06/07 01:36:53;;;;;;;21.57;15.37;;;18.90;99.90;;;;;;5081060;28;21008;-77
2021/06/07 01:39:27;;;;;;;23.40;14.37;;;18.90;99.90;;;;;;5086588;28;20456;-78
2021/06/07 01:41:54;;;;;;;22.17;14.90;;;18.90;1.00;;;;;;5085283;28;20466;-77
2021/06/07 01:44:23;;;;;;;22.13;15.23;;;18.90;99.90;;;;;;5087679;28;20452;-75
2021/06/07 01:46:50;;;;;;;24.03;16.17;;;18.90;99.90;;;;;;5087410;28;20506;-77
2021/06/07 01:49:18;;;;;;;23.10;13.80;;;18.90;99.90;;;;;;5085685;28;20456;-78
2021/06/07 01:51:46;;;;;;;21.00;14.60;;;18.90;99.90;;;;;;5087243;28;20539;-78
2021/06/07 01:54:13;;;;;;;23.87;15.00;;;18.90;1.00;;;;;;5085764;28;20488;-77
2021/06/07 01:56:43;;;;;;;22.77;16.30;;;18.80;1.00;;;;;;5087388;28;20542;-77
2021/06/07 01:59:10;;;;;;;23.90;15.47;;;18.90;1.00;;;;;;5086476;28;20450;-76
2021/06/07 02:01:38;;;;;;;24.63;16.10;;;18.90;1.00;;;;;;5085899;28;20971;-79
2021/06/07 02:04:06;;;;;;;28.80;15.30;;;18.80;1.00;;;;;;5086688;28;20792;-77
2021/06/07 02:06:33;;;;;;;24.47;15.07;;;18.90;1.00;;;;;;5086391;28;20529;-77
2021/06/07 02:09:03;;;;;;;26.53;16.40;;;18.90;99.90;;;;;;5086317;28;20491;-80
2021/06/07 02:11:31;;;;;;;26.10;15.77;;;18.90;99.90;;;;;;5086704;28;20849;-76
2021/06/07 02:14:03;;;;;;;27.20;16.60;;;18.80;1.00;;;;;;5086686;28;20502;-78
2021/06/07 02:16:33;;;;;;;22.33;15.53;;;18.80;1.00;;;;;;5086731;28;20632;-77
2021/06/07 02:19:02;;;;;;;29.10;16.63;;;18.80;1.00;;;;;;5084788;28;20452;-78
2021/06/07 02:21:30;;;;;;;21.80;14.90;;;18.80;1.00;;;;;;5086474;28;20483;-78
2021/06/07 02:23:58;;;;;;;26.40;16.80;;;18.80;1.00;;;;;;5087308;28;20464;-78
2021/06/07 02:26:27;;;;;;;25.27;17.07;;;18.80;99.90;;;;;;5076635;28;20472;-80
2021/06/07 02:28:58;;;;;;;27.37;16.60;;;18.80;1.00;;;;;;5086886;28;20437;-80
2021/06/07 02:31:28;;;;;;;24.40;17.40;;;18.80;1.00;;;;;;5085388;28;20467;-80
2021/06/07 02:34:00;;;;;;;24.53;15.80;;;18.90;99.90;;;;;;5088376;28;20447;-76
2021/06/07 02:36:30;;;;;;;25.70;16.40;;;18.80;99.90;;;;;;5072903;28;20549;-77
2021/06/07 02:38:58;;;;;;;26.73;17.37;;;18.90;99.90;;;;;;5086419;28;20514;-76
2021/06/07 02:41:26;;;;;;;25.37;16.17;;;18.90;1.00;;;;;;5083771;28;20520;-79
2021/06/07 02:43:54;;;;;;;26.63;16.20;;;18.80;99.90;;;;;;5087037;28;20460;-77
2021/06/07 02:46:22;;;;;;;25.37;15.10;;;18.80;99.90;;;;;;5085589;28;20473;-76
2021/06/07 02:48:52;;;;;;;35.57;18.20;;;18.80;99.90;;;;;;5089752;28;20551;-77
2021/06/07 02:51:19;;;;;;;35.67;18.40;;;18.80;99.90;;;;;;5088456;28;20510;-78
2021/06/07 02:53:49;;;;;;;26.43;16.70;;;18.80;99.90;;;;;;5091251;28;20449;-78
2021/06/07 02:56:17;;;;;;;29.93;17.33;;;18.80;99.90;;;;;;5089981;28;20485;-77
2021/06/07 02:58:45;;;;;;;29.20;18.80;;;18.80;99.90;;;;;;5088962;28;20480;-76
2021/06/07 03:01:13;;;;;;;28.03;18.20;;;18.80;99.90;;;;;;5086438;28;20457;-76
2021/06/07 03:03:41;;;;;;;30.67;17.10;;;18.90;99.90;;;;;;5081636;28;20464;-76
2021/06/07 03:06:10;;;;;;;26.00;17.93;;;18.80;99.90;;;;;;5090504;28;20481;-75
2021/06/07 03:08:37;;;;;;;30.40;17.27;;;18.80;99.90;;;;;;5090468;28;20510;-76
2021/06/07 03:11:07;;;;;;;29.07;17.50;;;18.70;1.00;;;;;;5088939;28;20812;-76
2021/06/07 03:13:35;;;;;;;28.70;17.20;;;18.80;99.90;;;;;;5090092;28;20461;-77
2021/06/07 03:16:03;;;;;;;25.80;15.83;;;18.70;1.00;;;;;;5087657;28;20469;-78
2021/06/07 03:18:31;;;;;;;29.70;16.53;;;18.70;1.00;;;;;;5090971;28;21085;-77
2021/06/07 03:20:59;;;;;;;29.20;17.07;;;18.70;1.00;;;;;;5115748;27;20484;-79
2021/06/07 03:23:31;;;;;;;26.93;16.83;;;18.80;1.00;;;;;;5089093;28;20495;-79
2021/06/07 03:25:59;;;;;;;31.53;17.17;;;18.70;99.90;;;;;;5090084;28;20534;-78
2021/06/07 03:28:27;;;;;;;26.90;16.90;;;18.70;99.90;;;;;;5090084;28;20456;-76
2021/06/07 03:30:56;;;;;;;31.63;19.37;;;18.70;1.00;;;;;;5088942;28;20828;-77
2021/06/07 03:33:24;;;;;;;29.13;17.07;;;18.70;1.00;;;;;;5089643;28;20749;-76
2021/06/07 03:35:55;;;;;;;27.07;16.00;;;18.70;99.90;;;;;;5087393;28;20501;-77
2021/06/07 03:38:23;;;;;;;28.43;18.57;;;18.70;1.00;;;;;;5120593;27;20474;-79
2021/06/07 03:40:55;;;;;;;31.17;17.90;;;18.70;1.00;;;;;;5085605;28;20457;-79
2021/06/07 03:43:28;;;;;;;26.90;18.23;;;18.70;1.00;;;;;;5084595;28;20965;-79
2021/06/07 03:45:56;;;;;;;30.57;18.50;;;18.70;1.00;;;;;;5088381;28;20484;-76
2021/06/07 03:48:24;;;;;;;30.13;17.00;;;18.70;1.00;;;;;;5081865;28;20802;-78
2021/06/07 03:50:53;;;;;;;30.97;18.30;;;18.70;1.00;;;;;;5089072;28;21030;-77
2021/06/07 03:53:20;;;;;;;29.43;18.50;;;18.60;25.10;;;;;;5089271;28;20457;-77
2021/06/07 03:55:49;;;;;;;29.07;17.97;;;18.60;1.00;;;;;;5088273;28;20541;-78
2021/06/07 03:58:22;;;;;;;34.30;19.27;;;18.60;86.00;;;;;;5088350;28;21022;-80
2021/06/07 04:00:50;;;;;;;33.77;19.20;;;18.60;35.90;;;;;;5088529;28;21003;-78
2021/06/07 04:03:18;;;;;;;28.30;16.87;;;18.60;78.40;;;;;;5087962;28;20986;-77
2021/06/07 04:05:46;;;;;;;30.20;18.17;;;18.60;11.50;;;;;;5088964;28;20473;-80
2021/06/07 04:08:14;;;;;;;26.67;18.50;;;18.60;78.40;;;;;;5087904;28;20445;-79
2021/06/07 04:10:45;;;;;;;28.70;18.43;;;18.70;1.00;;;;;;5088569;28;20546;-79
2021/06/07 04:13:13;;;;;;;31.47;17.77;;;18.60;1.00;;;;;;5088676;28;20453;-81
2021/06/07 04:15:43;;;;;;;33.47;18.63;;;18.60;1.00;;;;;;5121427;27;20585;-81
2021/06/07 04:18:11;;;;;;;29.80;19.63;;;18.60;78.00;;;;;;5087010;28;20511;-81
2021/06/07 04:20:38;;;;;;;29.47;17.20;;;18.70;1.00;;;;;;5089316;28;20513;-81
2021/06/07 04:23:07;;;;;;;26.80;16.93;;;18.70;1.00;;;;;;5086601;28;20461;-80
2021/06/07 04:25:35;;;;;;;28.60;17.70;;;18.60;1.00;;;;;;5088440;28;20485;-81
2021/06/07 04:28:04;;;;;;;26.83;17.23;;;18.60;1.00;;;;;;5085858;28;20459;-79
2021/06/07 04:30:32;;;;;;;26.53;16.13;;;18.60;1.00;;;;;;5119304;27;20453;-78
2021/06/07 04:33:03;;;;;;;28.13;17.40;;;18.60;1.00;;;;;;5088295;28;20444;-80
2021/06/07 04:35:32;;;;;;;24.40;16.77;;;18.70;1.00;;;;;;5084125;28;20603;-79
2021/06/07 04:38:00;;;;;;;27.60;16.20;;;18.60;1.00;;;;;;5089082;28;20575;-81
2021/06/07 04:40:30;;;;;;;23.53;16.20;;;18.60;56.10;;;;;;5089248;28;20445;-79
2021/06/07 04:42:58;;;;;;;25.90;15.83;;;18.60;1.00;;;;;;5088639;28;20483;-80
2021/06/07 04:45:29;;;;;;;23.93;16.00;;;18.70;1.00;;;;;;5085383;28;20538;-78
2021/06/07 04:47:57;;;;;;;18.93;13.83;;;18.70;1.00;;;;;;5087017;28;20503;-78
2021/06/07 04:50:28;;;;;;;28.73;15.50;;;18.70;1.00;;;;;;5085939;28;20457;-73
2021/06/07 04:52:57;;;;;;;24.83;15.37;;;18.60;1.70;;;;;;5083053;28;20975;-77
2021/06/07 04:55:30;;;;;;;24.33;15.50;;;18.70;1.00;;;;;;5094094;28;20587;-76
2021/06/07 04:57:58;;;;;;;24.13;15.37;;;18.70;1.00;;;;;;5081989;28;20465;-76
2021/06/07 05:00:27;;;;;;;22.60;15.50;;;18.70;1.00;;;;;;5096937;28;21022;-76
2021/06/07 05:02:55;;;;;;;23.00;14.80;;;18.70;1.00;;;;;;5095874;28;20451;-76
2021/06/07 05:05:23;;;;;;;21.87;13.30;;;18.70;1.00;;;;;;5089700;28;20617;-78
2021/06/07 05:07:52;;;;;;;19.87;12.80;;;18.60;1.00;;;;;;5085955;28;20461;-82
2021/06/07 05:10:20;;;;;;;19.23;13.33;;;18.60;1.00;;;;;;5096527;28;20467;-82
2021/06/07 05:12:48;;;;;;;19.50;14.00;;;18.60;13.80;;;;;;5092703;28;20527;-78
2021/06/07 05:15:17;;;;;;;18.77;12.87;;;18.60;99.90;;;;;;5088121;28;20489;-79
2021/06/07 05:17:45;;;;;;;17.90;12.30;;;18.50;99.90;;;;;;5085770;28;20485;-79
2021/06/07 05:20:16;;;;;;;17.53;12.17;;;18.60;99.90;;;;;;5088491;28;21333;-79
2021/06/07 05:22:43;;;;;;;20.70;13.60;;;18.60;99.90;;;;;;5084368;28;20513;-78
2021/06/07 05:25:14;;;;;;;18.30;11.30;;;18.60;99.90;;;;;;5088091;28;20469;-79
2021/06/07 05:27:41;;;;;;;17.77;11.43;;;18.60;99.90;;;;;;5088109;28;20456;-78
2021/06/07 05:30:11;;;;;;;14.50;10.67;;;18.60;99.90;;;;;;5084670;28;20457;-78
2021/06/07 05:32:39;;;;;;;18.13;12.70;;;18.60;99.90;;;;;;5087162;28;20437;-78
2021/06/07 05:35:09;;;;;;;15.53;10.23;;;18.60;99.90;;;;;;5088085;28;20534;-77
2021/06/07 05:37:37;;;;;;;14.77;10.00;;;18.60;99.90;;;;;;5092049;28;20462;-78
2021/06/07 05:40:07;;;;;;;15.17;10.50;;;18.60;99.90;;;;;;5086354;28;20449;-77
2021/06/07 05:42:37;;;;;;;12.47;9.30;;;18.60;78.10;;;;;;5090827;28;20452;-78
2021/06/07 05:45:07;;;;;;;23.50;9.87;;;18.60;99.90;;;;;;5086235;28;20553;-78
2021/06/07 05:47:35;;;;;;;14.10;9.37;;;18.60;99.90;;;;;;5087704;28;20445;-78
2021/06/07 05:50:05;;;;;;;15.07;9.83;;;18.60;99.90;;;;;;5084298;28;20451;-78
2021/06/07 05:52:33;;;;;;;13.10;8.97;;;18.60;99.90;;;;;;5087906;28;20459;-81
2021/06/07 05:55:00;;;;;;;13.23;9.37;;;18.60;99.90;;;;;;5088271;28;20479;-78
2021/06/07 05:57:28;;;;;;;13.90;8.80;;;18.60;99.90;;;;;;5093075;28;20486;-82
2021/06/07 05:59:57;;;;;;;11.67;9.07;;;18.60;99.90;;;;;;5098759;28;21243;-79
2021/06/07 06:02:24;;;;;;;11.27;9.37;;;18.60;99.90;;;;;;5072455;28;20504;-78
2021/06/07 06:04:52;;;;;;;11.73;8.70;;;18.60;99.90;;;;;;5076930;28;20488;-83
2021/06/07 06:07:20;;;;;;;9.07;7.20;;;18.60;99.90;;;;;;5086178;28;20528;-78
2021/06/07 06:09:47;;;;;;;12.60;8.60;;;18.60;99.90;;;;;;5091143;28;20547;-78
2021/06/07 06:12:15;;;;;;;13.97;7.50;;;18.60;99.90;;;;;;5085724;28;20460;-77
2021/06/07 06:14:43;;;;;;;10.40;7.60;;;18.60;99.90;;;;;;5087998;28;21007;-81
2021/06/07 06:17:12;;;;;;;12.03;7.70;;;18.60;99.90;;;;;;5087584;28;20449;-76
2021/06/07 06:19:39;;;;;;;10.97;8.27;;;18.60;99.90;;;;;;5089299;28;20533;-78
2021/06/07 06:22:07;;;;;;;11.50;7.83;;;18.70;99.90;;;;;;5088797;28;20952;-79
2021/06/07 06:24:35;;;;;;;10.13;7.60;;;18.60;99.90;;;;;;5089828;28;20503;-77
2021/06/07 06:27:03;;;;;;;9.10;7.57;;;18.60;99.90;;;;;;5092378;28;20456;-80
2021/06/07 06:29:31;;;;;;;10.90;8.03;;;18.70;99.90;;;;;;5092837;28;20886;-78
2021/06/07 06:31:59;;;;;;;14.20;9.00;;;18.80;99.90;;;;;;5093348;28;20492;-79
2021/06/07 06:34:28;;;;;;;11.70;7.87;;;18.70;99.90;;;;;;5083158;28;20945;-79
2021/06/07 06:36:56;;;;;;;9.60;6.90;;;18.70;99.90;;;;;;5087284;28;20457;-77
2021/06/07 06:39:23;;;;;;;8.93;6.60;;;18.70;99.90;;;;;;5090150;28;20477;-77
2021/06/07 06:41:51;;;;;;;9.50;6.60;;;18.70;99.90;;;;;;5087212;28;20456;-78
2021/06/07 06:44:19;;;;;;;10.00;6.87;;;18.80;79.40;;;;;;5086642;28;20449;-77
2021/06/07 06:46:46;;;;;;;7.93;6.17;;;18.70;99.90;;;;;;5096510;28;20476;-75
2021/06/07 06:49:14;;;;;;;8.13;6.40;;;18.70;99.90;;;;;;5089219;28;20463;-79
2021/06/07 06:51:43;;;;;;;10.60;8.10;;;18.70;99.90;;;;;;5092056;28;20822;-79
2021/06/07 06:54:11;;;;;;;10.77;7.20;;;18.70;99.90;;;;;;5085516;28;20457;-78
2021/06/07 06:56:39;;;;;;;11.83;8.63;;;18.90;99.90;;;;;;5085662;28;20806;-76
2021/06/07 06:59:06;;;;;;;10.10;8.27;;;18.70;99.90;;;;;;5087960;28;20546;-78
2021/06/07 07:01:34;;;;;;;8.73;6.70;;;18.70;99.90;;;;;;5084557;28;21002;-78
2021/06/07 07:04:02;;;;;;;12.50;9.60;;;18.70;99.90;;;;;;5084165;28;20799;-80
2021/06/07 07:06:32;;;;;;;10.43;7.50;;;18.70;99.90;;;;;;5084113;28;20537;-76
2021/06/07 07:09:01;;;;;;;10.70;6.73;;;18.80;99.90;;;;;;5097579;28;20820;-75
2021/06/07 07:11:29;;;;;;;12.33;7.97;;;18.80;99.90;;;;;;5084693;28;20504;-78
2021/06/07 07:13:56;;;;;;;10.33;7.30;;;18.80;99.90;;;;;;5080604;28;20465;-78
2021/06/07 07:16:24;;;;;;;9.00;7.90;;;18.70;99.90;;;;;;5087584;28;20469;-76
2021/06/07 07:18:52;;;;;;;11.97;8.37;;;18.70;99.90;;;;;;5088431;28;20712;-76
2021/06/07 07:21:20;;;;;;;11.77;8.23;;;18.70;99.90;;;;;;5086834;28;20525;-76
2021/06/07 07:23:48;;;;;;;11.57;8.23;;;18.70;99.90;;;;;;5087958;28;20520;-77
2021/06/07 07:26:18;;;;;;;12.30;8.87;;;18.70;99.90;;;;;;5084608;28;20485;-75
2021/06/07 07:28:45;;;;;;;12.50;8.90;;;18.70;99.90;;;;;;5079604;28;20843;-76
2021/06/07 07:31:13;;;;;;;11.60;7.43;;;18.70;99.90;;;;;;5083561;28;20457;-77
2021/06/07 07:33:45;;;;;;;11.03;7.17;;;18.70;1.00;;;;;;5086893;28;20529;-77
2021/06/07 07:36:14;;;;;;;11.20;7.57;;;18.70;1.00;;;;;;5083749;28;20495;-76
2021/06/07 07:38:43;;;;;;;12.80;8.43;;;18.70;1.00;;;;;;5084756;28;20579;-78
2021/06/07 07:41:11;;;;;;;10.60;8.30;;;18.80;1.00;;;;;;5082665;28;20449;-78
2021/06/07 07:43:41;;;;;;;9.73;8.07;;;18.80;1.00;;;;;;5084056;28;20486;-75
2021/06/07 07:46:08;;;;;;;13.60;9.13;;;18.80;1.00;;;;;;5080791;28;20528;-78
2021/06/07 07:48:36;;;;;;;9.87;7.20;;;18.80;99.90;;;;;;5085016;28;20820;-76
2021/06/07 07:51:04;;;;;;;9.70;7.37;;;18.80;99.90;;;;;;5092725;28;20513;-75
2021/06/07 07:53:32;;;;;;;10.03;7.20;;;18.80;1.00;;;;;;5079243;28;20479;-76
2021/06/07 07:56:00;;;;;;;8.37;6.53;;;18.80;1.00;;;;;;5079935;28;20469;-79
2021/06/07 07:58:27;;;;;;;10.80;7.80;;;18.90;1.00;;;;;;5085788;28;20475;-75
2021/06/07 08:00:56;;;;;;;10.27;7.90;;;18.90;1.00;;;;;;5085788;28;20741;-78
2021/06/07 08:03:24;;;;;;;9.03;6.30;;;18.90;1.00;;;;;;5085689;28;20453;-76
2021/06/07 08:05:52;;;;;;;8.03;7.20;;;18.90;1.00;;;;;;5084672;28;20555;-75
2021/06/07 08:08:20;;;;;;;7.30;6.20;;;19.00;1.00;;;;;;5086600;28;20879;-77
2021/06/07 08:10:49;;;;;;;7.97;7.17;;;19.00;99.90;;;;;;5088008;28;20537;-78
2021/06/07 08:13:16;;;;;;;10.37;7.20;;;19.00;99.90;;;;;;5088263;28;20783;-78
2021/06/07 08:15:44;;;;;;;7.93;7.00;;;19.00;99.90;;;;;;5080206;28;20487;-78
2021/06/07 08:18:13;;;;;;;7.47;5.63;;;19.00;99.90;;;;;;5086399;28;20468;-78
2021/06/07 08:20:44;;;;;;;6.67;6.07;;;19.00;99.90;;;;;;5082875;28;20457;-75
2021/06/07 08:23:12;;;;;;;7.73;6.83;;;19.00;1.00;;;;;;5093351;28;20635;-74
2021/06/07 08:25:40;;;;;;;7.60;6.03;;;18.90;99.90;;;;;;5084262;28;20476;-78
2021/06/07 08:28:08;;;;;;;7.17;5.53;;;19.00;99.90;;;;;;5085511;28;20461;-78
2021/06/07 08:30:36;;;;;;;8.30;4.70;;;19.00;99.90;;;;;;5086555;28;20899;-78
2021/06/07 08:33:04;;;;;;;7.20;5.10;;;19.10;99.90;;;;;;5087405;28;20449;-77
2021/06/07 08:35:34;;;;;;;6.70;5.77;;;19.10;99.90;;;;;;5085226;28;20473;-78
2021/06/07 08:38:03;;;;;;;8.73;5.40;;;19.10;99.90;;;;;;5082768;28;20460;-80
2021/06/07 08:40:30;;;;;;;5.17;4.67;;;19.10;99.90;;;;;;5080913;28;20477;-79
2021/06/07 08:42:59;;;;;;;5.83;5.23;;;19.10;1.00;;;;;;5083937;28;20924;-77
2021/06/07 08:45:28;;;;;;;5.90;4.47;;;19.00;1.00;;;;;;5083590;28;20559;-78
2021/06/07 08:47:57;;;;;;;4.87;4.47;;;19.00;1.00;;;;;;5084944;28;20878;-76
2021/06/07 08:50:26;;;;;;;4.73;4.37;;;19.10;1.00;;;;;;5081948;28;20522;-74
2021/06/07 08:52:56;;;;;;;5.43;4.50;;;19.10;1.00;;;;;;5075785;28;20459;-76
2021/06/07 08:55:28;;;;;;;5.20;4.60;;;19.10;1.00;;;;;;5080232;28;20478;-75
2021/06/07 08:58:00;;;;;;;6.33;4.80;;;19.10;1.00;;;;;;5119642;27;20449;-79
2021/06/07 09:00:31;;;;;;;5.87;4.80;;;19.10;1.00;;;;;;5081890;28;20539;-77
2021/06/07 09:03:00;;;;;;;5.33;4.70;;;19.10;1.00;;;;;;5085541;28;20467;-76
2021/06/07 09:05:30;;;;;;;6.63;5.03;;;19.10;1.00;;;;;;5085222;28;21190;-75
2021/06/07 09:08:01;;;;;;;6.20;4.60;;;19.10;1.00;;;;;;5086921;28;20460;-77
2021/06/07 09:10:32;;;;;;;5.53;4.53;;;19.30;1.00;;;;;;5084678;28;20456;-76
2021/06/07 09:13:04;;;;;;;6.13;5.53;;;19.20;1.00;;;;;;5092018;28;20477;-76
2021/06/07 09:15:36;;;;;;;6.90;5.10;;;19.20;1.00;;;;;;5083947;28;20465;-79
2021/06/07 09:18:06;;;;;;;6.70;5.77;;;19.20;1.00;;;;;;5083852;28;20468;-73
2021/06/07 09:20:36;;;;;;;6.50;5.87;;;19.20;1.00;;;;;;5083441;28;20478;-74
2021/06/07 09:23:08;;;;;;;5.27;4.70;;;19.30;1.00;;;;;;5085681;28;20987;-79
2021/06/07 09:25:39;;;;;;;5.67;4.37;;;19.30;1.00;;;;;;5085455;28;20557;-78
2021/06/07 09:28:12;;;;;;;4.27;3.87;;;19.30;1.00;;;;;;5084451;28;20449;-77
2021/06/07 09:30:47;;;;;;;6.57;5.63;;;19.30;1.00;;;;;;5080249;28;20455;-76
2021/06/07 09:33:21;;;;;;;7.77;5.43;;;19.30;1.00;;;;;;5112486;27;20515;-77
2021/06/07 09:36:06;;;;;;;7.07;4.10;;;19.30;1.00;;;;;;5084707;28;20489;-75
2021/06/07 09:38:52;;;;;;;4.80;4.17;;;19.40;1.00;;;;;;5083282;28;20449;-74
2021/06/07 09:41:20;;;;;;;4.93;3.87;;;19.40;99.90;;;;;;5076427;28;20453;-71
2021/06/07 09:43:48;;;;;;;3.87;3.50;;;19.40;99.90;;;;;;5079638;28;20510;-74
2021/06/07 09:46:17;;;;;;;3.70;3.40;;;19.50;99.90;;;;;;5078405;28;20901;-75
2021/06/07 09:48:44;;;;;;;3.70;3.33;;;19.50;99.90;;;;;;5084134;28;20540;-75
2021/06/07 09:51:19;;;;;;;5.53;3.27;;;19.50;99.90;;;;;;5084654;28;20468;-80
2021/06/07 09:53:52;;;;;;;3.40;3.10;;;19.50;99.90;;;;;;5085684;28;20795;-77
2021/06/07 09:56:20;;;;;;;3.03;2.80;;;19.50;99.90;;;;;;5080309;28;20511;-76
2021/06/07 09:58:48;;;;;;;3.53;3.33;;;19.50;99.90;;;;;;5080945;28;20453;-76
2021/06/07 10:01:19;;;;;;;3.03;2.73;;;19.50;99.90;;;;;;5078618;28;20552;-78
2021/06/07 10:03:51;;;;;;;3.47;3.17;;;19.60;99.90;;;;;;5080309;28;20450;-75
2021/06/07 10:06:25;;;;;;;3.90;3.50;;;19.60;99.90;;;;;;5086516;28;20469;-77
2021/06/07 10:08:59;;;;;;;4.13;3.77;;;19.60;99.90;;;;;;5080323;28;20455;-76
2021/06/07 10:11:29;;;;;;;4.10;3.70;;;19.50;99.90;;;;;;5086260;28;20970;-75
2021/06/07 10:14:09;;;;;;;3.60;3.27;;;19.60;99.90;;;;;;5084381;28;20461;-76
2021/06/07 10:16:38;;;;;;;4.63;4.03;;;19.60;99.90;;;;;;5083789;28;21290;-76
2021/06/07 10:19:08;;;;;;;5.10;4.60;;;19.60;99.90;;;;;;5084821;28;20522;-76
2021/06/07 10:21:35;;;;;;;6.20;5.30;;;19.60;99.90;;;;;;5082066;28;20507;-76
2021/06/07 10:24:05;;;;;;;5.60;5.00;;;19.60;99.90;;;;;;5085923;28;20454;-79
2021/06/07 10:26:33;;;;;;;6.63;5.93;;;19.60;99.90;;;;;;5085206;28;20481;-77
2021/06/07 10:29:00;;;;;;;5.53;5.03;;;19.60;99.90;;;;;;5094558;28;20466;-75
2021/06/07 10:31:28;;;;;;;7.13;6.40;;;19.60;99.90;;;;;;5080983;28;20457;-80
2021/06/07 10:33:58;;;;;;;6.47;5.30;;;19.60;99.90;;;;;;5084287;28;20477;-76
2021/06/07 10:36:35;;;;;;;7.73;6.17;;;19.60;99.90;;;;;;5085488;28;20469;-76
2021/06/07 10:39:37;;;;;;;6.27;5.63;;;19.60;99.90;;;;;;5086544;28;20453;-77
2021/06/07 10:42:25;;;;;;;5.40;4.90;;;19.70;1.00;;;;;;5056295;28;20450;-75
2021/06/07 10:44:58;;;;;;;6.67;5.97;;;19.60;1.00;;;;;;5053065;28;20486;-76
2021/06/07 10:47:28;;;;;;;8.37;7.10;;;19.70;99.90;;;;;;5075815;28;20469;-75
2021/06/07 10:49:58;;;;;;;6.87;6.07;;;19.70;99.90;;;;;;5092465;28;20434;-75
2021/06/07 10:52:28;;;;;;;6.90;5.70;;;19.70;99.90;;;;;;5084947;28;20492;-75
2021/06/07 10:54:59;;;;;;;8.23;5.83;;;19.60;1.00;;;;;;5081829;28;20474;-76
2021/06/07 10:57:36;;;;;;;7.60;6.50;;;19.60;1.00;;;;;;5084449;28;20461;-76
2021/06/07 11:00:18;;;;;;;7.67;6.97;;;19.60;1.00;;;;;;5081593;28;20908;-76
2021/06/07 11:02:47;;;;;;;8.07;6.40;;;19.70;99.90;;;;;;5078746;28;20952;-76
2021/06/07 11:05:17;;;;;;;8.00;6.67;;;19.70;1.00;;;;;;5083872;28;20890;-77
2021/06/07 11:07:46;;;;;;;7.43;6.73;;;19.70;99.90;;;;;;5084784;28;20456;-75
2021/06/07 11:10:25;;;;;;;15.47;11.27;;;19.80;99.90;;;;;;5085597;28;20453;-77
2021/06/07 11:12:54;;;;;;;10.40;6.80;;;19.80;99.90;;;;;;5086332;28;20530;-75
2021/06/07 11:15:24;;;;;;;9.03;8.13;;;19.80;99.90;;;;;;5077495;28;20545;-78
2021/06/07 11:17:53;;;;;;;7.90;7.10;;;19.80;99.90;;;;;;5087596;28;20794;-77
2021/06/07 11:20:35;;;;;;;7.70;5.70;;;19.80;99.90;;;;;;5085971;28;20564;-80
2021/06/07 11:23:08;;;;;;;7.67;6.73;;;19.80;99.90;;;;;;5089347;28;20524;-78
2021/06/07 11:25:49;;;;;;;6.83;6.00;;;19.70;99.90;;;;;;5082995;28;20987;-79
2021/06/07 11:28:43;;;;;;;7.03;6.33;;;19.80;99.90;;;;;;5085809;28;20502;-80
2021/06/07 11:31:54;;;;;;;7.67;6.27;;;19.80;99.90;;;;;;5084462;28;20442;-77
2021/06/07 11:34:47;;;;;;;6.40;5.70;;;19.90;99.90;;;;;;5085756;28;20831;-79
2021/06/07 11:37:31;;;;;;;5.90;5.30;;;19.80;1.00;;;;;;5087805;28;20445;-77
2021/06/07 11:39:59;;;;;;;7.00;6.30;;;19.80;99.90;;;;;;5087107;28;20478;-79
2021/06/07 11:42:29;;;;;;;6.87;5.90;;;19.90;99.90;;;;;;5089903;28;20482;-78
2021/06/07 11:45:01;;;;;;;7.33;6.60;;;19.90;99.90;;;;;;5088227;28;20492;-75
2021/06/07 11:47:51;;;;;;;6.77;6.17;;;19.90;99.90;;;;;;5090332;28;20446;-79
2021/06/07 11:50:26;;;;;;;8.00;6.40;;;19.90;99.90;;;;;;5085064;28;20453;-78
2021/06/07 11:52:54;;;;;;;7.03;6.37;;;19.80;99.90;;;;;;5084218;28;20521;-78
2021/06/07 11:55:33;;;;;;;6.20;5.60;;;19.80;99.90;;;;;;5083760;28;20477;-77
2021/06/07 11:58:17;;;;;;;7.97;7.07;;;19.80;1.00;;;;;;5086136;28;20489;-76
2021/06/07 12:00:47;;;;;;;8.73;7.27;;;19.90;99.90;;;;;;5087572;28;20477;-78
2021/06/07 12:03:18;;;;;;;10.60;6.90;;;19.90;99.90;;;;;;5087978;28;20447;-76
2021/06/07 12:05:46;;;;;;;8.73;6.47;;;19.90;1.00;;;;;;5096277;28;20477;-76
2021/06/07 12:08:16;;;;;;;8.03;6.40;;;19.90;99.90;;;;;;5085720;28;21044;-76
2021/06/07 12:10:50;;;;;;;7.53;6.83;;;19.90;1.00;;;;;;5090084;28;20452;-76
2021/06/07 12:13:23;;;;;;;7.50;6.80;;;20.00;99.90;;;;;;5087998;28;20466;-78
2021/06/07 12:15:53;;;;;;;8.17;7.27;;;20.00;99.90;;;;;;5083719;28;20519;-75
2021/06/07 12:18:38;;;;;;;7.33;6.63;;;20.00;99.90;;;;;;5090226;28;20460;-79
2021/06/07 12:21:12;;;;;;;7.37;6.63;;;20.00;99.90;;;;;;5086940;28;20477;-81
2021/06/07 12:23:44;;;;;;;7.17;6.30;;;20.00;99.90;;;;;;5085105;28;20449;-75
2021/06/07 12:29:22;;;;;;;7.00;6.30;;;20.00;99.90;;;;;;5083712;28;20453;-77
2021/06/07 12:32:13;;;;;;;7.63;6.80;;;20.00;99.90;;;;;;5079939;28;20530;-78
2021/06/07 12:35:00;;;;;;;6.87;6.17;;;20.00;99.90;;;;;;5088572;28;20438;-75
2021/06/07 12:37:30;;;;;;;7.93;6.23;;;20.00;99.90;;;;;;5079033;28;20465;-77
2021/06/07 12:40:23;;;;;;;6.83;6.10;;;20.00;1.00;;;;;;5085926;28;21062;-78
2021/06/07 12:42:54;;;;;;;8.60;6.90;;;20.10;99.90;;;;;;5088806;28;20456;-79
2021/06/07 12:45:25;;;;;;;6.80;6.10;;;20.20;1.00;;;;;;5117988;27;20470;-75
2021/06/07 12:47:54;;;;;;;8.00;7.30;;;20.20;99.90;;;;;;5090913;28;20450;-74
2021/06/07 12:50:24;;;;;;;8.57;6.57;;;20.20;99.90;;;;;;5086783;28;20495;-76
2021/06/07 12:52:54;;;;;;;7.30;5.90;;;20.20;99.90;;;;;;5086259;28;20527;-75
2021/06/07 12:55:24;;;;;;;8.47;6.40;;;20.20;99.90;;;;;;5076052;28;20476;-76
2021/06/07 12:57:53;;;;;;;8.13;6.00;;;20.20;99.90;;;;;;5096168;28;21159;-77